Main page
METAR-TAF:

METAR-TAF

Airports :

Valladolid Airport

Valladolid, Spain

latitude: 41-43N, longitude: 004-51W, elevation: 849 m

Current weather observation

The report was made 12 minutes ago, at 14:00 UTC
Wind 7 kt from the Southwest, varying between South/Southwest and West
Temperature 14°C
Humidity 58%
Pressure 1025 hPa
Visibility 10 km or more
Scattered clouds at a height of 3000 ft

METAR: LEVD 021400Z 22007KT 200V260 9999 SCT030 14/06 Q1025

Time: 15:12 (14:12 UTC)

Forecast

The report was made 6 hours and 12 minutes ago, at 08:00 UTC
Forecast valid from 02 at 09 UTC to 03 at 09 UTC
Wind 7 kt from the South
Visibility 10 km or more
Few clouds at a height of 4500 ft
Probability 30%
from 02 at 14 UTC to 02 at 20 UTC
Visibility: 4000 m
Few clouds at a height of 2500 ft, Towering cumulus.
rain showers

TAF: LEVD 020800Z 0209/0309 18007KT 9999 FEW045 TX15/0215Z TN05/0307Z PROB30 0214/0220 4000 SHRA FEW025TCU

Weather observations and forecasts of more than 4000 airports (METAR and TAF reports).

The available stations are represented by yellow and red dots on the map.

Hover mouse over dot to see the name of the station.

Then click to see weather observations and forecasts.

To change the map : click on the green buttons with a black cross to zoom in, on the green button with a dash to zoom out, or on the green arrows for adjacent maps.


METAR-TAF: